Time,TemperatureF,DewpointF,PressureIn,WindDirection,WindDirectionDegrees,WindSpeedMPH,WindSpeedGustMPH,Humidity,HourlyPrecipIn,Conditions,Clouds,dailyrainin,SoftwareType,DateUTC
2013-01-23 00:01:00,3.2,-2.7,30.40,NE,34,4.0,6.0,76,0.00,,,0.00,Wunderground v.1.15,2013-01-23 06:01:00,
2013-01-23 00:07:00,3.2,-2.4,30.40,NE,49,4.0,6.0,77,0.00,,,0.00,Wunderground v.1.15,2013-01-23 06:07:00,
2013-01-23 00:26:00,3.5,-3.0,30.40,NE,39,2.0,4.0,76,0.00,,,0.00,weatherlink.com 1.10,2013-01-23 06:26:00,
2013-01-23 00:42:00,3.6,-2.0,30.39,ENE,60,0.0,2.0,76,0.00,,,0.00,weatherlink.com 1.10,2013-01-23 06:42:00,
2013-01-23 00:57:00,3.6,-2.0,30.39,ENE,60,0.0,1.0,76,0.00,,,0.00,weatherlink.com 1.10,2013-01-23 06:57:00,
2013-01-23 01:12:00,3.7,-2.0,30.39,NE,44,1.0,1.0,76,0.00,,,0.00,weatherlink.com 1.10,2013-01-23 07:12:00,
2013-01-23 01:27:00,3.9,-2.0,30.38,NE,44,0.0,2.0,76,0.00,,,0.00,weatherlink.com 1.10,2013-01-23 07:27:00,
2013-01-23 01:42:00,4.0,-2.0,30.38,NE,43,0.0,1.0,76,0.00,,,0.00,weatherlink.com 1.10,2013-01-23 07:42:00,
2013-01-23 01:57:00,4.1,-2.0,30.37,NE,37,0.0,2.0,76,0.00,,,0.00,weatherlink.com 1.10,2013-01-23 07:57:00,
2013-01-23 02:12:00,4.3,-1.0,30.37,NE,46,1.0,2.0,77,0.00,,,0.00,weatherlink.com 1.10,2013-01-23 08:12:00,
2013-01-23 02:27:00,4.6,-1.0,30.38,NNE,27,2.0,5.0,77,0.00,,,0.00,weatherlink.com 1.10,2013-01-23 08:27:00,
2013-01-23 02:42:00,4.7,-1.0,30.37,NE,36,2.0,3.0,78,0.00,,,0.00,weatherlink.com 1.10,2013-01-23 08:42:00,
2013-01-23 02:57:00,4.8,-1.0,30.36,NNE,25,3.0,5.0,78,0.00,,,0.00,weatherlink.com 1.10,2013-01-23 08:57:00,
2013-01-23 03:12:00,4.9,0.0,30.35,NNE,18,1.0,5.0,79,0.00,,,0.00,weatherlink.com 1.10,2013-01-23 09:12:00,
2013-01-23 03:27:00,5.1,0.0,30.35,NNE,23,4.0,6.0,80,0.00,,,0.00,weatherlink.com 1.10,2013-01-23 09:27:00,
2013-01-23 03:42:00,5.2,0.0,30.34,NNE,20,4.0,6.0,80,0.00,,,0.00,weatherlink.com 1.10,2013-01-23 09:42:00,
2013-01-23 03:57:00,5.2,1.0,30.35,NNE,25,5.0,5.0,81,0.00,,,0.00,weatherlink.com 1.10,2013-01-23 09:57:00,
2013-01-23 04:13:00,5.3,1.0,30.34,NNE,33,2.0,3.0,82,0.00,,,0.00,weatherlink.com 1.10,2013-01-23 10:13:00,
2013-01-23 04:28:00,5.4,1.0,30.33,NE,38,1.0,4.0,82,0.00,,,0.00,weatherlink.com 1.10,2013-01-23 10:28:00,
2013-01-23 04:43:00,5.5,1.0,30.33,NNE,21,3.0,4.0,83,0.00,,,0.00,weatherlink.com 1.10,2013-01-23 10:43:00,
2013-01-23 04:58:00,5.6,2.0,30.32,NNE,28,2.0,4.0,83,0.00,,,0.00,weatherlink.com 1.10,2013-01-23 10:58:00,
2013-01-23 05:13:00,5.7,2.0,30.32,NNE,32,2.0,4.0,84,0.00,,,0.00,weatherlink.com 1.10,2013-01-23 11:13:00,
2013-01-23 05:28:00,5.8,2.0,30.31,NE,39,2.0,4.0,84,0.00,,,0.00,weatherlink.com 1.10,2013-01-23 11:28:00,
2013-01-23 05:43:00,5.9,2.0,30.32,ENE,66,1.0,3.0,85,0.00,,,0.00,weatherlink.com 1.10,2013-01-23 11:43:00,
2013-01-23 05:58:00,6.0,3.0,30.32,ENE,66,1.0,3.0,85,0.00,,,0.00,weatherlink.com 1.10,2013-01-23 11:58:00,
2013-01-23 06:13:00,6.1,3.0,30.33,East,79,2.0,3.0,85,0.00,,,0.00,weatherlink.com 1.10,2013-01-23 12:13:00,
2013-01-23 06:28:00,6.1,3.0,30.32,ENE,63,2.0,4.0,86,0.00,,,0.00,weatherlink.com 1.10,2013-01-23 12:28:00,
2013-01-23 06:43:00,6.2,3.0,30.33,East,96,2.0,4.0,86,0.00,,,0.00,weatherlink.com 1.10,2013-01-23 12:43:00,
2013-01-23 06:58:00,6.1,3.0,30.33,East,86,1.0,3.0,86,0.00,,,0.00,weatherlink.com 1.10,2013-01-23 12:58:00,
2013-01-23 07:13:00,6.2,3.0,30.33,East,98,1.0,4.0,86,0.00,,,0.00,weatherlink.com 1.10,2013-01-23 13:13:00,
2013-01-23 07:29:00,6.2,3.0,30.32,East,89,3.0,3.0,86,0.00,,,0.00,weatherlink.com 1.10,2013-01-23 13:29:00,
2013-01-23 07:44:00,6.3,3.0,30.32,ENE,77,2.0,4.0,86,0.00,,,0.00,weatherlink.com 1.10,2013-01-23 13:44:00,
2013-01-23 07:59:00,6.5,3.0,30.32,ENE,58,3.0,4.0,86,0.00,,,0.00,weatherlink.com 1.10,2013-01-23 13:59:00,
2013-01-23 08:14:00,6.8,4.0,30.32,ENE,77,5.0,6.0,86,0.00,,,0.00,weatherlink.com 1.10,2013-01-23 14:14:00,
2013-01-23 08:29:00,7.2,4.0,30.32,East,88,3.0,7.0,86,0.00,,,0.00,weatherlink.com 1.10,2013-01-23 14:29:00,
2013-01-23 08:44:00,7.6,4.0,30.32,ESE,105,5.0,8.0,86,0.00,,,0.00,weatherlink.com 1.10,2013-01-23 14:44:00,
2013-01-23 08:59:00,8.0,5.0,30.32,East,95,3.0,7.0,86,0.00,,,0.00,weatherlink.com 1.10,2013-01-23 14:59:00,
2013-01-23 09:14:00,8.4,5.0,30.33,ESE,102,3.0,8.0,86,0.00,,,0.00,weatherlink.com 1.10,2013-01-23 15:14:00,
2013-01-23 09:29:00,9.1,6.0,30.34,ESE,120,2.0,9.0,86,0.00,,,0.00,weatherlink.com 1.10,2013-01-23 15:29:00,
2013-01-23 09:44:00,10.0,6.0,30.33,East,87,4.0,11.0,84,0.00,,,0.00,weatherlink.com 1.10,2013-01-23 15:44:00,
2013-01-23 09:59:00,10.3,6.0,30.33,ESE,111,5.0,11.0,82,0.00,,,0.00,weatherlink.com 1.10,2013-01-23 15:59:00,
2013-01-23 10:14:00,10.9,6.0,30.34,SE,139,5.0,15.0,80,0.00,,,0.00,weatherlink.com 1.10,2013-01-23 16:14:00,
2013-01-23 10:29:00,11.4,6.0,30.34,ESE,108,12.0,14.0,79,0.00,,,0.00,weatherlink.com 1.10,2013-01-23 16:29:00,
2013-01-23 10:45:00,11.8,6.0,30.35,ESE,113,12.0,14.0,77,0.00,,,0.00,weatherlink.com 1.10,2013-01-23 16:45:00,
2013-01-23 11:00:00,12.6,6.0,30.36,SE,129,12.0,16.0,76,0.00,,,0.00,weatherlink.com 1.10,2013-01-23 17:00:00,
2013-01-23 11:15:00,12.5,5.0,30.35,SE,146,8.0,23.0,73,0.00,,,0.00,weatherlink.com 1.10,2013-01-23 17:15:00,
2013-01-23 11:45:00,12.3,4.0,30.35,SSE,152,11.0,24.0,69,0.00,,,0.00,weatherlink.com 1.10,2013-01-23 17:45:00,
2013-01-23 12:00:00,12.4,4.0,30.35,SE,135,13.0,20.0,70,0.00,,,0.00,weatherlink.com 1.10,2013-01-23 18:00:00,
2013-01-23 12:15:00,12.2,4.0,30.35,SSE,153,13.0,21.0,69,0.00,,,0.00,weatherlink.com 1.10,2013-01-23 18:15:00,
2013-01-23 12:30:00,11.9,3.0,30.35,SE,135,16.0,21.0,68,0.00,,,0.00,weatherlink.com 1.10,2013-01-23 18:30:00,
2013-01-23 12:45:00,11.4,3.0,30.35,South,170,9.0,20.0,69,0.00,,,0.00,weatherlink.com 1.10,2013-01-23 18:45:00,
2013-01-23 13:00:00,10.7,1.0,30.35,SE,143,17.0,20.0,66,0.00,,,0.00,weatherlink.com 1.10,2013-01-23 19:00:00,
2013-01-23 13:15:00,10.1,0.0,30.36,SSE,148,13.0,23.0,65,0.00,,,0.00,weatherlink.com 1.10,2013-01-23 19:15:00,
2013-01-23 13:33:00,9.8,-1.0,30.36,SSE,148,9.0,26.0,63,0.00,,,0.00,weatherlink.com 1.10,2013-01-23 19:33:00,
2013-01-23 13:45:00,9.4,-2.0,30.37,SE,145,13.0,25.0,60,0.00,,,0.00,weatherlink.com 1.10,2013-01-23 19:45:00,
2013-01-23 14:00:00,8.9,-3.0,30.38,SE,128,13.0,24.0,59,0.00,,,0.00,weatherlink.com 1.10,2013-01-23 20:00:00,
2013-01-23 14:16:00,8.1,-3.0,30.39,SE,139,10.0,26.0,60,0.00,,,0.00,weatherlink.com 1.10,2013-01-23 20:16:00,
2013-01-23 14:31:00,8.0,-4.0,30.40,SSE,152,18.0,26.0,58,0.00,,,0.00,weatherlink.com 1.10,2013-01-23 20:31:00,
2013-01-23 14:46:00,7.8,-4.0,30.41,SSE,156,12.0,24.0,59,0.00,,,0.00,weatherlink.com 1.10,2013-01-23 20:46:00,
2013-01-23 15:01:00,7.4,-4.0,30.43,SE,146,19.0,26.0,59,0.00,,,0.00,weatherlink.com 1.10,2013-01-23 21:01:00,
2013-01-23 15:16:00,6.7,-6.0,30.45,SSE,153,20.0,28.0,57,0.00,,,0.00,weatherlink.com 1.10,2013-01-23 21:16:00,
2013-01-23 15:21:00,6.2,-6.5,30.45,SSE,152,14.0,14.0,55,0.00,,,0.00,Wunderground v.1.15,2013-01-23 21:21:00,
2013-01-23 15:27:00,6.1,-6.6,30.46,SSE,153,14.0,20.0,55,0.00,,,0.00,Wunderground v.1.15,2013-01-23 21:27:00,
2013-01-23 15:32:00,5.8,-7.3,30.46,SE,142,14.0,20.0,54,0.00,,,0.00,Wunderground v.1.15,2013-01-23 21:32:00,
2013-01-23 15:37:00,5.6,-7.5,30.47,SE,135,14.0,20.0,54,0.00,,,0.00,Wunderground v.1.15,2013-01-23 21:37:00,
2013-01-23 15:43:00,5.4,-7.3,30.47,SSE,148,12.0,13.0,55,0.00,,,0.00,Wunderground v.1.15,2013-01-23 21:43:00,
2013-01-23 15:49:00,5.1,-7.6,30.48,SE,129,13.0,20.0,55,0.00,,,0.00,Wunderground v.1.15,2013-01-23 21:49:00,
2013-01-23 15:56:00,4.9,-7.4,30.48,SE,144,12.0,19.0,56,0.00,,,0.00,Wunderground v.1.15,2013-01-23 21:56:00,
2013-01-23 16:02:00,4.7,-7.6,30.49,SE,124,12.0,13.0,56,0.00,,,0.00,Wunderground v.1.15,2013-01-23 22:02:00,
2013-01-23 16:08:00,4.6,-7.7,30.50,WSW,238,12.0,18.0,56,0.00,,,0.00,Wunderground v.1.15,2013-01-23 22:08:00,
2013-01-23 16:14:00,4.4,-7.5,30.50,SSE,163,12.0,17.0,57,0.00,,,0.00,Wunderground v.1.15,2013-01-23 22:14:00,
2013-01-23 16:20:00,3.9,-8.0,30.50,SE,139,12.0,16.0,57,0.00,,,0.00,Wunderground v.1.15,2013-01-23 22:20:00,
2013-01-23 16:26:00,3.8,-8.1,30.50,SSE,150,12.0,16.0,57,0.00,,,0.00,Wunderground v.1.15,2013-01-23 22:26:00,
2013-01-23 16:32:00,3.7,-9.0,30.51,SSE,158,7.0,19.0,57,0.00,,,0.00,weatherlink.com 1.10,2013-01-23 22:32:00,
2013-01-23 16:38:00,3.8,-8.8,30.51,SSE,148,11.0,17.0,55,0.00,,,0.00,Wunderground v.1.15,2013-01-23 22:38:00,
2013-01-23 16:44:00,3.6,-9.4,30.52,South,190,11.0,12.0,54,0.00,,,0.00,Wunderground v.1.15,2013-01-23 22:44:00,
2013-01-23 16:50:00,3.3,-10.0,30.52,SSE,150,12.0,17.0,53,0.00,,,0.00,Wunderground v.1.15,2013-01-23 22:50:00,
2013-01-23 16:56:00,2.9,-10.4,30.53,SSW,203,13.0,17.0,53,0.00,,,0.00,Wunderground v.1.15,2013-01-23 22:56:00,
2013-01-23 17:02:00,2.6,-9.9,30.53,SSE,161,11.0,13.0,55,0.00,,,0.00,Wunderground v.1.15,2013-01-23 23:02:00,
2013-01-23 17:08:00,2.3,-10.6,30.54,SW,219,12.0,17.0,54,0.00,,,0.00,Wunderground v.1.15,2013-01-23 23:08:00,
2013-01-23 17:14:00,2.2,-10.7,30.55,SSE,153,11.0,12.0,54,0.00,,,0.00,Wunderground v.1.15,2013-01-23 23:14:00,
2013-01-23 17:20:00,2.0,-10.5,30.56,SE,143,10.0,10.0,55,0.00,,,0.00,Wunderground v.1.15,2013-01-23 23:20:00,
2013-01-23 17:26:00,1.8,-11.0,30.56,South,179,9.0,12.0,54,0.00,,,0.00,Wunderground v.1.15,2013-01-23 23:26:00,
2013-01-23 17:32:00,1.5,-12.0,30.56,SSE,160,5.0,18.0,54,0.00,,,0.00,weatherlink.com 1.10,2013-01-23 23:32:00,
2013-01-23 17:38:00,1.4,-11.4,30.57,SSE,156,10.0,14.0,54,0.00,,,0.00,Wunderground v.1.15,2013-01-23 23:38:00,
2013-01-23 17:44:00,1.2,-11.6,30.57,SSE,161,10.0,11.0,54,0.00,,,0.00,Wunderground v.1.15,2013-01-23 23:44:00,
2013-01-23 17:50:00,1.0,-11.8,30.58,SSE,167,10.0,10.0,54,0.00,,,0.00,Wunderground v.1.15,2013-01-23 23:50:00,
2013-01-23 17:58:00,0.8,-11.6,30.59,South,170,11.0,15.0,55,0.00,,,0.00,Wunderground v.1.15,2013-01-23 23:58:00,
2013-01-23 18:04:00,0.7,-11.3,30.60,SSW,195,10.0,11.0,56,0.00,,,0.00,Wunderground v.1.15,2013-01-24 00:04:00,
2013-01-23 18:09:00,0.6,-11.4,30.59,SSW,194,10.0,11.0,56,0.00,,,0.00,Wunderground v.1.15,2013-01-24 00:09:00,
2013-01-23 18:15:00,0.4,-11.6,30.59,SSE,162,9.0,13.0,56,0.00,,,0.00,Wunderground v.1.15,2013-01-24 00:15:00,
2013-01-23 18:21:00,0.3,-11.7,30.60,SSW,193,11.0,16.0,56,0.00,,,0.00,Wunderground v.1.15,2013-01-24 00:21:00,
2013-01-23 18:27:00,0.1,-11.6,30.61,South,169,11.0,16.0,57,0.00,,,0.00,Wunderground v.1.15,2013-01-24 00:27:00,
2013-01-23 18:33:00,-0.1,-12.0,30.61,South,184,12.0,16.0,58,0.00,,,0.00,weatherlink.com 1.10,2013-01-24 00:33:00,
2013-01-23 18:39:00,-0.3,-11.9,30.61,SSE,165,9.0,13.0,57,0.00,,,0.00,Wunderground v.1.15,2013-01-24 00:39:00,
2013-01-23 18:45:00,-0.4,-11.7,30.61,SSE,163,10.0,11.0,58,0.00,,,0.00,Wunderground v.1.15,2013-01-24 00:45:00,
2013-01-23 18:50:00,-0.6,-11.9,30.61,South,176,9.0,9.0,58,0.00,,,0.00,Wunderground v.1.15,2013-01-24 00:50:00,
2013-01-23 18:56:00,-0.7,-12.3,30.61,South,183,10.0,12.0,57,0.00,,,0.00,Wunderground v.1.15,2013-01-24 00:56:00,
2013-01-23 19:02:00,-0.9,-13.0,30.62,South,189,6.0,16.0,58,0.00,,,0.00,weatherlink.com 1.10,2013-01-24 01:02:00,
2013-01-23 19:08:00,-1.1,-12.3,30.62,SSW,201,8.0,11.0,58,0.00,,,0.00,Wunderground v.1.15,2013-01-24 01:08:00,
2013-01-23 19:17:00,-1.2,-12.0,30.62,South,184,6.0,14.0,59,0.00,,,0.00,weatherlink.com 1.10,2013-01-24 01:17:00,
2013-01-23 19:25:00,-1.5,-12.4,30.63,SSE,167,8.0,10.0,59,0.00,,,0.00,Wunderground v.1.15,2013-01-24 01:25:00,
2013-01-23 19:30:00,-1.6,-12.8,30.64,SSE,158,9.0,11.0,58,0.00,,,0.00,Wunderground v.1.15,2013-01-24 01:30:00,
2013-01-23 19:47:00,-2.1,-13.0,30.65,SSW,193,11.0,15.0,59,0.00,,,0.00,weatherlink.com 1.10,2013-01-24 01:47:00,
2013-01-23 20:02:00,-2.5,-14.0,30.66,SSW,201,5.0,12.0,59,0.00,,,0.00,weatherlink.com 1.10,2013-01-24 02:02:00,
2013-01-23 20:17:00,-2.9,-14.0,30.66,South,186,7.0,12.0,60,0.00,,,0.00,weatherlink.com 1.10,2013-01-24 02:17:00,
2013-01-23 20:32:00,-3.2,-14.0,30.67,SSW,205,8.0,12.0,60,0.00,,,0.00,weatherlink.com 1.10,2013-01-24 02:32:00,
2013-01-23 20:47:00,-3.5,-14.0,30.69,South,177,9.0,12.0,61,0.00,,,0.00,weatherlink.com 1.10,2013-01-24 02:47:00,
2013-01-23 21:02:00,-4.0,-14.0,30.69,SSW,200,10.0,14.0,61,0.00,,,0.00,weatherlink.com 1.10,2013-01-24 03:02:00,
2013-01-23 21:17:00,-4.4,-14.0,30.69,South,177,5.0,13.0,62,0.00,,,0.00,weatherlink.com 1.10,2013-01-24 03:17:00,
2013-01-23 21:33:00,-4.8,-15.0,30.70,South,178,4.0,11.0,63,0.00,,,0.00,weatherlink.com 1.10,2013-01-24 03:33:00,
2013-01-23 21:48:00,-5.1,-15.0,30.71,SSW,193,6.0,13.0,63,0.00,,,0.00,weatherlink.com 1.10,2013-01-24 03:48:00,
2013-01-23 22:03:00,-5.5,-15.0,30.72,SSW,205,10.0,13.0,63,0.00,,,0.00,weatherlink.com 1.10,2013-01-24 04:03:00,
2013-01-23 22:18:00,-5.8,-15.0,30.73,South,191,4.0,14.0,63,0.00,,,0.00,weatherlink.com 1.10,2013-01-24 04:18:00,
2013-01-23 22:33:00,-6.0,-15.0,30.74,SSW,196,9.0,11.0,64,0.00,,,0.00,weatherlink.com 1.10,2013-01-24 04:33:00,
2013-01-23 22:48:00,-6.3,-15.0,30.75,South,174,5.0,10.0,65,0.00,,,0.00,weatherlink.com 1.10,2013-01-24 04:48:00,
2013-01-23 23:03:00,-6.5,-16.0,30.76,SSW,198,6.0,12.0,64,0.00,,,0.00,weatherlink.com 1.10,2013-01-24 05:03:00,
2013-01-23 23:18:00,-6.9,-16.0,30.76,SSW,207,6.0,11.0,64,0.00,,,0.00,weatherlink.com 1.10,2013-01-24 05:18:00,
2013-01-23 23:33:00,-7.0,-16.0,30.77,SSW,212,6.0,11.0,64,0.00,,,0.00,weatherlink.com 1.10,2013-01-24 05:33:00,
2013-01-23 23:48:00,-7.2,-16.0,30.77,South,183,7.0,11.0,64,0.00,,,0.00,weatherlink.com 1.10,2013-01-24 05:48:00,